Sunday, November 18, 2018, 10:22 AM EST
Back to Local

KDSV, Dansville Municipal Airport

Location: Dansville, NY, United States Lat: 42.567
Local Time: 10:22 AM EST (15:22 GMT) Lon: -77.717
Time Zone: US/Eastern Elev: 662 ft

Show me the last for .
Show Decoded

2018-11-18 09:54 METAR KDSV 181454Z AUTO 12004KT 8SM BKN041 OVC050 01/M03 A3030 RMK AO2 SNB32E46
                 SLP276 P0000 60000 T00111028 58008 =
2018-11-18 09:05 METAR KDSV 181405Z AUTO 15003KT 10SM SCT021 SCT049 OVC065 01/M03 A3031 RMK AO2
                 T00061033 =
2018-11-18 08:54 METAR KDSV 181354Z AUTO 16004KT 10SM BKN021 BKN029 OVC080 00/M03 A3031 RMK AO2
                 SLP280 T00001033 =
2018-11-18 07:54 METAR KDSV 181254Z AUTO 00000KT 10SM OVC026 M01/M03 A3031 RMK AO2 SLP281
                 T10061028 =
2018-11-18 07:41 METAR KDSV 181241Z AUTO 00000KT 10SM OVC028 M01/M03 A3031 RMK AO2 T10111028 =
2018-11-18 06:54 METAR KDSV 181154Z AUTO 00000KT 10SM OVC033 M01/M03 A3032 RMK AO2 SLP284
                 T10061028 10006 21011 53004 =
2018-11-18 05:54 METAR KDSV 181054Z AUTO 00000KT 10SM FEW023 OVC041 M01/M03 A3032 RMK AO2 SLP282
                 T10111028 =
2018-11-18 04:54 METAR KDSV 180954Z AUTO 00000KT 10SM SCT024 OVC045 M01/M03 A3031 RMK AO2 SLP280
                 T10061028 =
2018-11-18 04:28 METAR KDSV 180928Z AUTO 00000KT 10SM BKN024 OVC047 M01/M03 A3031 RMK AO2
                 T10061028 =
2018-11-18 04:05 METAR KDSV 180905Z AUTO 00000KT 10SM SCT027 OVC047 00/M03 A3031 RMK AO2
                 T00001028 =
2018-11-18 03:54 METAR KDSV 180854Z AUTO 00000KT 10SM BKN026 OVC046 00/M03 A3031 RMK AO2 SLP280
                 T00001028 56006 =
2018-11-18 03:34 METAR KDSV 180834Z AUTO 00000KT 10SM BKN026 OVC044 00/M03 A3031 RMK AO2
                 T00001028 =
2018-11-18 02:54 METAR KDSV 180754Z AUTO 00000KT 10SM FEW023 FEW031 OVC045 00/M03 A3032 RMK AO2
                 SLP283 T00001028 =
2018-11-18 02:01 METAR KDSV 180701Z AUTO 00000KT 10SM SCT026 SCT034 OVC045 00/M03 A3032 RMK AO2
                 T00001028 =
2018-11-18 01:54 METAR KDSV 180654Z AUTO 00000KT 10SM BKN026 OVC045 00/M03 A3032 RMK AO2 SLP283
                 T00001028 =
2018-11-18 01:02 METAR KDSV 180602Z AUTO 00000KT 10SM BKN023 BKN030 OVC042 01/M03 A3033 RMK AO2
                 T00061033 =
2018-11-18 00:54 METAR KDSV 180554Z AUTO 00000KT 10SM SCT023 BKN030 OVC042 01/M03 A3033 RMK AO2
                 SLP285 T00061028 10017 20006 53009 =
2018-11-18 00:09 METAR KDSV 180509Z AUTO 00000KT 10SM FEW026 BKN033 OVC045 01/M03 A3032 RMK AO2
                 T00061028 =
2018-11-17 23:54 METAR KDSV 180454Z AUTO 00000KT 10SM BKN029 OVC046 01/M03 A3031 RMK AO2 SLP280
                 T00061033 400440006 =
2018-11-17 22:54 METAR KDSV 180354Z AUTO 00000KT 10SM FEW030 OVC045 01/M03 A3031 RMK AO2 SLP280
                 T00061028 =
2018-11-17 22:46 METAR KDSV 180346Z AUTO 00000KT 10SM SCT027 SCT033 OVC044 01/M03 A3031 RMK AO2
                 T00061028 =
2018-11-17 21:54 METAR KDSV 180254Z AUTO 36005KT 10SM BKN023 OVC030 01/M03 A3030 RMK AO2 SLP276
                 T00111028 51008 =
2018-11-17 21:38 METAR KDSV 180238Z AUTO 34004KT 10SM BKN025 BKN030 OVC045 01/M03 A3030 RMK AO2
                 T00111028 =
2018-11-17 19:54 METAR KDSV 180054Z AUTO 31004KT 10SM OVC037 02/M03 A3029 RMK AO2 SLP273
                 T00171033 =
2018-11-17 18:54 METAR KDSV 172354Z AUTO 00000KT 10SM OVC038 02/M03 A3028 RMK AO2 SLP267 60000
                 T00171028 10028 20011 53019 =
2018-11-17 17:54 METAR KDSV 172254Z AUTO 33005KT 10SM BKN034 OVC042 02/M03 A3026 RMK AO2 SNB28E40
                 SLP261 P0000 T00171028 =
2018-11-17 16:54 METAR KDSV 172154Z AUTO 30003KT 10SM OVC031 02/M03 A3022 RMK AO2 SLP250
                 T00221028 =
2018-11-17 16:41 METAR KDSV 172141Z AUTO 00000KT 10SM OVC031 02/M02 A3022 RMK AO2 T00221022 =
2018-11-17 15:54 METAR KDSV 172054Z AUTO 00000KT 10SM BKN025 OVC032 02/M02 A3022 RMK AO2 SLP248
                 T00221022 53019 =
2018-11-17 14:54 METAR KDSV 171954Z AUTO 34006KT 10SM BKN023 OVC028 02/M02 A3019 RMK AO2 SLP239
                 T00171017 =
2018-11-17 13:54 METAR KDSV 171854Z AUTO 33007KT 10SM OVC023 02/M02 A3018 RMK AO2 SLP233
                 T00221022 =
2018-11-17 12:54 METAR KDSV 171754Z AUTO 33008KT 10SM BKN024 OVC030 02/M02 A3016 RMK AO2 SLP228
                 T00221017 10044 20022 53006 =
2018-11-17 12:32 METAR KDSV 171732Z AUTO 31011G19KT 10SM BKN026 OVC032 03/M02 A3015 RMK AO2
                 T00281017 =
2018-11-17 11:54 METAR KDSV 171654Z AUTO VRB04KT 10SM OVC036 04/M02 A3015 RMK AO2 SLP223
                 T00441022 =
2018-11-17 10:54 METAR KDSV 171554Z AUTO VRB03KT 10SM OVC034 04/M01 A3015 RMK AO2 SLP223
                 T00391011 =
2018-11-17 10:43 METAR KDSV 171543Z AUTO 00000KT 10SM SCT027 OVC037 03/M01 A3015 RMK AO2
                 T00331011 =
2018-11-17 10:27 METAR KDSV 171527Z AUTO 00000KT 10SM BKN028 OVC037 04/M01 A3015 RMK AO2
                 T00391011 =

Support USWX by starting your Amazon purchase here.